sensor_id;sensor_type;location;lat;lon;timestamp;P1;durP1;ratioP1;P2;durP2;ratioP2
20456;SDS011;10387;51.102;6.848;2022-11-11T19:09:30;6.30;;;4.43;;
20456;SDS011;10387;51.102;6.848;2022-11-11T19:12:16;5.47;;;3.93;;
20456;SDS011;10387;51.102;6.848;2022-11-11T19:15:11;5.93;;;4.17;;
20456;SDS011;10387;51.102;6.848;2022-11-11T19:17:58;5.23;;;4.23;;
20456;SDS011;10387;51.102;6.848;2022-11-11T19:20:43;7.03;;;4.47;;
20456;SDS011;10387;51.102;6.848;2022-11-11T19:23:28;4.97;;;4.40;;
20456;SDS011;10387;51.102;6.848;2022-11-11T19:26:13;6.63;;;5.13;;
20456;SDS011;10387;51.102;6.848;2022-11-11T19:29:01;8.70;;;5.87;;
20456;SDS011;10387;51.102;6.848;2022-11-11T19:31:52;7.00;;;5.73;;
20456;SDS011;10387;51.102;6.848;2022-11-11T19:34:37;7.90;;;6.30;;
20456;SDS011;10387;51.102;6.848;2022-11-11T19:37:24;6.43;;;5.83;;
20456;SDS011;10387;51.102;6.848;2022-11-11T19:40:09;7.80;;;5.73;;
20456;SDS011;10387;51.102;6.848;2022-11-11T19:42:54;7.90;;;5.00;;
20456;SDS011;10387;51.102;6.848;2022-11-11T19:45:39;5.70;;;5.10;;
20456;SDS011;10387;51.102;6.848;2022-11-11T19:48:25;7.60;;;5.53;;
20456;SDS011;10387;51.102;6.848;2022-11-11T19:51:15;9.67;;;5.60;;
20456;SDS011;10387;51.102;6.848;2022-11-11T19:54:01;8.10;;;5.53;;
20456;SDS011;10387;51.102;6.848;2022-11-11T19:56:47;6.97;;;5.03;;
20456;SDS011;10387;51.102;6.848;2022-11-11T19:59:32;7.13;;;5.97;;
20456;SDS011;10387;51.102;6.848;2022-11-11T20:02:18;7.77;;;5.60;;
20456;SDS011;10387;51.102;6.848;2022-11-11T20:05:03;6.97;;;5.23;;
20456;SDS011;10387;51.102;6.848;2022-11-11T20:07:48;5.47;;;4.63;;
20456;SDS011;10387;51.102;6.848;2022-11-11T20:10:39;6.10;;;5.43;;
20456;SDS011;10387;51.102;6.848;2022-11-11T20:13:25;7.20;;;5.47;;
20456;SDS011;10387;51.102;6.848;2022-11-11T20:16:10;7.53;;;5.30;;
20456;SDS011;10387;51.102;6.848;2022-11-11T20:18:57;6.77;;;4.93;;
20456;SDS011;10387;51.102;6.848;2022-11-11T20:21:45;7.17;;;5.77;;
20456;SDS011;10387;51.102;6.848;2022-11-11T20:24:32;6.87;;;5.43;;
20456;SDS011;10387;51.102;6.848;2022-11-11T20:27:24;9.30;;;6.73;;
20456;SDS011;10387;51.102;6.848;2022-11-11T20:30:12;8.83;;;7.13;;
20456;SDS011;10387;51.102;6.848;2022-11-11T20:33:00;8.97;;;7.73;;
20456;SDS011;10387;51.102;6.848;2022-11-11T20:35:47;7.50;;;6.37;;
20456;SDS011;10387;51.102;6.848;2022-11-11T20:38:33;8.50;;;6.20;;
20456;SDS011;10387;51.102;6.848;2022-11-11T20:41:21;9.70;;;6.53;;
20456;SDS011;10387;51.102;6.848;2022-11-11T20:44:06;8.80;;;6.93;;
20456;SDS011;10387;51.102;6.848;2022-11-11T20:46:51;10.40;;;6.50;;
20456;SDS011;10387;51.102;6.848;2022-11-11T20:49:36;10.60;;;6.77;;
20456;SDS011;10387;51.102;6.848;2022-11-11T20:52:21;7.50;;;6.73;;
20456;SDS011;10387;51.102;6.848;2022-11-11T20:55:06;10.13;;;6.33;;
20456;SDS011;10387;51.102;6.848;2022-11-11T20:57:55;9.90;;;7.23;;
20456;SDS011;10387;51.102;6.848;2022-11-11T21:00:44;7.90;;;6.30;;
20456;SDS011;10387;51.102;6.848;2022-11-11T21:03:29;8.20;;;6.50;;
20456;SDS011;10387;51.102;6.848;2022-11-11T21:06:15;7.33;;;6.60;;
20456;SDS011;10387;51.102;6.848;2022-11-11T21:09:01;7.33;;;6.63;;
20456;SDS011;10387;51.102;6.848;2022-11-11T21:11:46;8.73;;;6.73;;
20456;SDS011;10387;51.102;6.848;2022-11-11T21:14:31;10.23;;;7.27;;
20456;SDS011;10387;51.102;6.848;2022-11-11T21:17:16;8.50;;;7.60;;
20456;SDS011;10387;51.102;6.848;2022-11-11T21:20:03;7.27;;;6.57;;
20456;SDS011;10387;51.102;6.848;2022-11-11T21:22:50;9.17;;;6.73;;
20456;SDS011;10387;51.102;6.848;2022-11-11T21:28:35;8.67;;;7.00;;
20456;SDS011;10387;51.102;6.848;2022-11-11T21:31:22;10.10;;;7.37;;
20456;SDS011;10387;51.102;6.848;2022-11-11T21:34:10;8.27;;;6.50;;
20456;SDS011;10387;51.102;6.848;2022-11-11T21:36:55;9.37;;;6.97;;
20456;SDS011;10387;51.102;6.848;2022-11-11T21:39:40;7.93;;;7.10;;
20456;SDS011;10387;51.102;6.848;2022-11-11T21:42:25;11.00;;;7.30;;
20456;SDS011;10387;51.102;6.848;2022-11-11T21:45:12;7.97;;;7.00;;
20456;SDS011;10387;51.102;6.848;2022-11-11T21:47:57;8.30;;;7.50;;
20456;SDS011;10387;51.102;6.848;2022-11-11T21:50:41;11.03;;;7.37;;
20456;SDS011;10387;51.102;6.848;2022-11-11T21:53:28;9.40;;;7.40;;
20456;SDS011;10387;51.102;6.848;2022-11-11T21:56:15;9.40;;;8.40;;
20456;SDS011;10387;51.102;6.848;2022-11-11T21:59:02;9.50;;;7.60;;
20456;SDS011;10387;51.102;6.848;2022-11-11T22:01:48;9.57;;;7.90;;
20456;SDS011;10387;51.102;6.848;2022-11-11T22:04:35;10.47;;;7.43;;
20456;SDS011;10387;51.102;6.848;2022-11-11T22:07:21;9.97;;;7.80;;
20456;SDS011;10387;51.102;6.848;2022-11-11T22:10:05;8.93;;;7.87;;
20456;SDS011;10387;51.102;6.848;2022-11-11T22:12:51;9.40;;;7.87;;
20456;SDS011;10387;51.102;6.848;2022-11-11T22:15:36;9.33;;;7.90;;
20456;SDS011;10387;51.102;6.848;2022-11-11T22:18:22;9.17;;;7.90;;
20456;SDS011;10387;51.102;6.848;2022-11-11T22:23:57;8.80;;;7.77;;
20456;SDS011;10387;51.102;6.848;2022-11-11T22:26:41;10.53;;;8.43;;
20456;SDS011;10387;51.102;6.848;2022-11-11T22:29:29;12.57;;;8.27;;
20456;SDS011;10387;51.102;6.848;2022-11-11T22:32:14;10.27;;;8.57;;
20456;SDS011;10387;51.102;6.848;2022-11-11T22:35:00;12.90;;;8.63;;
20456;SDS011;10387;51.102;6.848;2022-11-11T22:37:44;11.50;;;9.10;;
20456;SDS011;10387;51.102;6.848;2022-11-11T22:40:32;10.87;;;8.63;;
20456;SDS011;10387;51.102;6.848;2022-11-11T22:43:16;10.90;;;9.60;;
20456;SDS011;10387;51.102;6.848;2022-11-11T22:46:02;10.00;;;9.00;;
20456;SDS011;10387;51.102;6.848;2022-11-11T22:48:50;12.57;;;9.87;;
20456;SDS011;10387;51.102;6.848;2022-11-11T22:51:39;11.40;;;9.63;;
20456;SDS011;10387;51.102;6.848;2022-11-11T22:54:24;10.87;;;8.97;;
20456;SDS011;10387;51.102;6.848;2022-11-11T22:57:10;12.43;;;9.80;;
20456;SDS011;10387;51.102;6.848;2022-11-11T22:59:55;15.30;;;10.23;;
20456;SDS011;10387;51.102;6.848;2022-11-11T23:02:40;10.17;;;9.10;;
20456;SDS011;10387;51.102;6.848;2022-11-11T23:05:27;13.83;;;10.80;;
20456;SDS011;10387;51.102;6.848;2022-11-11T23:08:14;14.27;;;9.47;;
20456;SDS011;10387;51.102;6.848;2022-11-11T23:11:05;14.67;;;10.03;;
20456;SDS011;10387;51.102;6.848;2022-11-11T23:13:51;12.57;;;9.80;;
20456;SDS011;10387;51.102;6.848;2022-11-11T23:16:35;15.03;;;10.63;;
20456;SDS011;10387;51.102;6.848;2022-11-11T23:19:21;12.70;;;10.23;;
20456;SDS011;10387;51.102;6.848;2022-11-11T23:22:06;11.97;;;9.57;;
20456;SDS011;10387;51.102;6.848;2022-11-11T23:24:53;12.57;;;9.67;;
20456;SDS011;10387;51.102;6.848;2022-11-11T23:27:43;13.20;;;10.47;;
20456;SDS011;10387;51.102;6.848;2022-11-11T23:30:28;12.20;;;9.87;;
20456;SDS011;10387;51.102;6.848;2022-11-11T23:33:17;12.23;;;10.17;;
20456;SDS011;10387;51.102;6.848;2022-11-11T23:36:02;11.33;;;9.50;;
20456;SDS011;10387;51.102;6.848;2022-11-11T23:38:48;12.47;;;9.77;;
20456;SDS011;10387;51.102;6.848;2022-11-11T23:41:37;11.83;;;9.77;;
20456;SDS011;10387;51.102;6.848;2022-11-11T23:44:22;11.90;;;9.23;;
20456;SDS011;10387;51.102;6.848;2022-11-11T23:47:07;11.47;;;8.50;;
20456;SDS011;10387;51.102;6.848;2022-11-11T23:49:52;9.27;;;8.20;;
20456;SDS011;10387;51.102;6.848;2022-11-11T23:52:36;13.57;;;9.20;;
20456;SDS011;10387;51.102;6.848;2022-11-11T23:55:21;11.87;;;8.77;;
20456;SDS011;10387;51.102;6.848;2022-11-11T23:58:08;12.93;;;8.70;;
